sensor_id;sensor_type;location;lat;lon;timestamp;P1;durP1;ratioP1;P2;durP2;ratioP2
72261;SDS011;60173;52.112;8.648;2023-09-19T00:00:06;11.32;;;4.82;;
72261;SDS011;60173;52.112;8.648;2023-09-19T00:02:33;9.40;;;4.20;;
72261;SDS011;60173;52.112;8.648;2023-09-19T00:05:00;11.43;;;4.00;;
72261;SDS011;60173;52.112;8.648;2023-09-19T00:07:26;6.57;;;3.97;;
72261;SDS011;60173;52.112;8.648;2023-09-19T00:09:52;9.23;;;4.72;;
72261;SDS011;60173;52.112;8.648;2023-09-19T00:12:19;10.30;;;4.90;;
72261;SDS011;60173;52.112;8.648;2023-09-19T00:14:45;9.18;;;4.43;;
72261;SDS011;60173;52.112;8.648;2023-09-19T00:17:11;11.02;;;4.55;;
72261;SDS011;60173;52.112;8.648;2023-09-19T00:19:38;11.80;;;4.45;;
72261;SDS011;60173;52.112;8.648;2023-09-19T00:22:04;11.50;;;5.07;;
72261;SDS011;60173;52.112;8.648;2023-09-19T00:24:31;12.25;;;5.38;;
72261;SDS011;60173;52.112;8.648;2023-09-19T00:26:57;9.10;;;4.50;;
72261;SDS011;60173;52.112;8.648;2023-09-19T00:29:24;11.32;;;5.00;;
72261;SDS011;60173;52.112;8.648;2023-09-19T00:31:51;19.80;;;5.68;;
72261;SDS011;60173;52.112;8.648;2023-09-19T00:34:17;16.88;;;5.13;;
72261;SDS011;60173;52.112;8.648;2023-09-19T00:36:44;11.90;;;4.90;;
72261;SDS011;60173;52.112;8.648;2023-09-19T00:39:10;12.05;;;4.78;;
72261;SDS011;60173;52.112;8.648;2023-09-19T00:41:37;13.10;;;5.00;;
72261;SDS011;60173;52.112;8.648;2023-09-19T00:44:03;9.55;;;4.70;;
72261;SDS011;60173;52.112;8.648;2023-09-19T00:46:30;10.00;;;4.50;;
72261;SDS011;60173;52.112;8.648;2023-09-19T00:48:57;8.32;;;4.13;;
72261;SDS011;60173;52.112;8.648;2023-09-19T00:51:25;10.75;;;4.78;;
72261;SDS011;60173;52.112;8.648;2023-09-19T00:53:52;10.77;;;4.53;;
72261;SDS011;60173;52.112;8.648;2023-09-19T00:56:20;9.80;;;4.35;;
72261;SDS011;60173;52.112;8.648;2023-09-19T00:58:47;10.90;;;5.25;;
72261;SDS011;60173;52.112;8.648;2023-09-19T01:01:14;11.65;;;4.45;;
72261;SDS011;60173;52.112;8.648;2023-09-19T01:03:41;10.13;;;4.70;;
72261;SDS011;60173;52.112;8.648;2023-09-19T01:06:08;12.60;;;4.82;;
72261;SDS011;60173;52.112;8.648;2023-09-19T01:08:35;12.40;;;4.70;;
72261;SDS011;60173;52.112;8.648;2023-09-19T01:16:32;14.52;;;4.57;;
72261;SDS011;60173;52.112;8.648;2023-09-19T01:30:30;10.85;;;3.70;;
72261;SDS011;60173;52.112;8.648;2023-09-19T01:33:01;12.20;;;4.57;;
72261;SDS011;60173;52.112;8.648;2023-09-19T01:35:28;11.30;;;4.20;;
72261;SDS011;60173;52.112;8.648;2023-09-19T01:37:54;12.15;;;4.28;;
72261;SDS011;60173;52.112;8.648;2023-09-19T01:40:20;14.07;;;4.53;;
72261;SDS011;60173;52.112;8.648;2023-09-19T01:45:59;10.30;;;4.20;;
72261;SDS011;60173;52.112;8.648;2023-09-19T01:54:01;14.65;;;3.85;;
72261;SDS011;60173;52.112;8.648;2023-09-19T01:59:06;11.10;;;3.80;;
72261;SDS011;60173;52.112;8.648;2023-09-19T02:01:36;11.45;;;4.38;;
72261;SDS011;60173;52.112;8.648;2023-09-19T02:04:03;12.55;;;3.97;;
72261;SDS011;60173;52.112;8.648;2023-09-19T02:06:30;15.30;;;3.92;;
72261;SDS011;60173;52.112;8.648;2023-09-19T02:08:58;14.95;;;3.88;;
72261;SDS011;60173;52.112;8.648;2023-09-19T02:11:24;10.80;;;3.92;;
72261;SDS011;60173;52.112;8.648;2023-09-19T02:13:51;15.02;;;3.50;;
72261;SDS011;60173;52.112;8.648;2023-09-19T02:16:18;10.63;;;3.50;;
72261;SDS011;60173;52.112;8.648;2023-09-19T02:18:44;12.50;;;3.63;;
72261;SDS011;60173;52.112;8.648;2023-09-19T02:21:11;14.88;;;3.75;;
72261;SDS011;60173;52.112;8.648;2023-09-19T02:23:37;13.95;;;3.85;;
72261;SDS011;60173;52.112;8.648;2023-09-19T02:26:04;20.35;;;3.95;;
72261;SDS011;60173;52.112;8.648;2023-09-19T02:28:30;21.13;;;4.65;;
72261;SDS011;60173;52.112;8.648;2023-09-19T02:30:57;15.35;;;3.70;;
72261;SDS011;60173;52.112;8.648;2023-09-19T02:33:24;15.25;;;4.28;;
72261;SDS011;60173;52.112;8.648;2023-09-19T02:35:54;10.57;;;3.65;;
72261;SDS011;60173;52.112;8.648;2023-09-19T02:38:21;11.25;;;4.13;;
72261;SDS011;60173;52.112;8.648;2023-09-19T02:40:48;17.50;;;3.95;;
72261;SDS011;60173;52.112;8.648;2023-09-19T02:43:14;13.88;;;3.90;;
72261;SDS011;60173;52.112;8.648;2023-09-19T02:45:41;15.80;;;4.40;;
72261;SDS011;60173;52.112;8.648;2023-09-19T02:48:07;18.20;;;4.75;;
72261;SDS011;60173;52.112;8.648;2023-09-19T02:50:33;15.25;;;4.30;;
72261;SDS011;60173;52.112;8.648;2023-09-19T02:53:00;14.95;;;4.40;;
72261;SDS011;60173;52.112;8.648;2023-09-19T02:55:26;13.57;;;4.60;;
72261;SDS011;60173;52.112;8.648;2023-09-19T02:57:53;18.08;;;4.20;;
72261;SDS011;60173;52.112;8.648;2023-09-19T03:00:20;15.05;;;4.30;;
72261;SDS011;60173;52.112;8.648;2023-09-19T03:02:48;14.55;;;4.10;;
72261;SDS011;60173;52.112;8.648;2023-09-19T03:05:15;11.48;;;3.72;;
72261;SDS011;60173;52.112;8.648;2023-09-19T03:07:42;17.60;;;4.55;;
72261;SDS011;60173;52.112;8.648;2023-09-19T03:10:09;17.17;;;4.10;;
72261;SDS011;60173;52.112;8.648;2023-09-19T03:12:35;15.40;;;3.95;;
72261;SDS011;60173;52.112;8.648;2023-09-19T03:15:02;17.92;;;5.28;;
72261;SDS011;60173;52.112;8.648;2023-09-19T03:17:29;13.82;;;5.28;;
72261;SDS011;60173;52.112;8.648;2023-09-19T03:19:55;12.50;;;3.97;;
72261;SDS011;60173;52.112;8.648;2023-09-19T03:22:22;10.38;;;4.07;;
72261;SDS011;60173;52.112;8.648;2023-09-19T03:24:48;15.32;;;4.50;;
72261;SDS011;60173;52.112;8.648;2023-09-19T03:27:15;15.13;;;4.55;;
72261;SDS011;60173;52.112;8.648;2023-09-19T03:29:42;12.95;;;4.45;;
72261;SDS011;60173;52.112;8.648;2023-09-19T03:32:08;16.48;;;4.88;;
72261;SDS011;60173;52.112;8.648;2023-09-19T03:34:35;14.85;;;4.63;;
72261;SDS011;60173;52.112;8.648;2023-09-19T03:37:03;12.73;;;4.32;;
72261;SDS011;60173;52.112;8.648;2023-09-19T03:39:29;12.43;;;4.00;;
72261;SDS011;60173;52.112;8.648;2023-09-19T03:41:55;11.60;;;4.18;;
72261;SDS011;60173;52.112;8.648;2023-09-19T03:44:22;15.68;;;4.57;;
72261;SDS011;60173;52.112;8.648;2023-09-19T03:46:48;17.13;;;4.13;;
72261;SDS011;60173;52.112;8.648;2023-09-19T03:49:15;17.50;;;4.65;;
72261;SDS011;60173;52.112;8.648;2023-09-19T03:51:41;20.92;;;4.60;;
72261;SDS011;60173;52.112;8.648;2023-09-19T03:54:08;12.93;;;4.80;;
72261;SDS011;60173;52.112;8.648;2023-09-19T03:56:34;17.35;;;4.00;;
72261;SDS011;60173;52.112;8.648;2023-09-19T03:59:01;18.30;;;4.00;;
72261;SDS011;60173;52.112;8.648;2023-09-19T04:01:27;13.32;;;3.88;;
72261;SDS011;60173;52.112;8.648;2023-09-19T04:03:53;17.05;;;4.90;;
72261;SDS011;60173;52.112;8.648;2023-09-19T04:06:20;20.17;;;4.38;;
72261;SDS011;60173;52.112;8.648;2023-09-19T04:08:46;16.80;;;4.28;;
72261;SDS011;60173;52.112;8.648;2023-09-19T04:11:13;24.33;;;4.68;;
72261;SDS011;60173;52.112;8.648;2023-09-19T04:13:39;17.42;;;4.05;;
72261;SDS011;60173;52.112;8.648;2023-09-19T04:16:06;14.52;;;4.03;;
72261;SDS011;60173;52.112;8.648;2023-09-19T04:18:33;13.70;;;3.95;;
72261;SDS011;60173;52.112;8.648;2023-09-19T04:20:59;15.98;;;3.83;;
72261;SDS011;60173;52.112;8.648;2023-09-19T04:23:26;13.50;;;3.60;;
72261;SDS011;60173;52.112;8.648;2023-09-19T04:25:52;13.13;;;3.60;;
72261;SDS011;60173;52.112;8.648;2023-09-19T04:28:19;11.20;;;3.35;;
72261;SDS011;60173;52.112;8.648;2023-09-19T04:30:45;14.32;;;3.47;;
72261;SDS011;60173;52.112;8.648;2023-09-19T04:33:11;17.65;;;3.50;;
72261;SDS011;60173;52.112;8.648;2023-09-19T04:35:38;17.92;;;4.00;;
72261;SDS011;60173;52.112;8.648;2023-09-19T04:38:04;14.93;;;3.55;;
72261;SDS011;60173;52.112;8.648;2023-09-19T04:40:31;19.40;;;3.50;;
72261;SDS011;60173;52.112;8.648;2023-09-19T04:42:57;15.13;;;4.00;;
72261;SDS011;60173;52.112;8.648;2023-09-19T04:45:27;17.13;;;3.38;;
72261;SDS011;60173;52.112;8.648;2023-09-19T04:47:54;18.25;;;3.58;;
72261;SDS011;60173;52.112;8.648;2023-09-19T04:50:21;12.75;;;3.60;;
72261;SDS011;60173;52.112;8.648;2023-09-19T04:52:50;13.40;;;4.32;;
72261;SDS011;60173;52.112;8.648;2023-09-19T04:55:17;12.82;;;3.25;;
72261;SDS011;60173;52.112;8.648;2023-09-19T04:57:45;23.55;;;4.22;;
72261;SDS011;60173;52.112;8.648;2023-09-19T05:00:16;16.50;;;4.20;;
72261;SDS011;60173;52.112;8.648;2023-09-19T05:02:44;16.00;;;3.70;;
72261;SDS011;60173;52.112;8.648;2023-09-19T05:05:11;17.13;;;3.58;;
72261;SDS011;60173;52.112;8.648;2023-09-19T05:07:41;16.48;;;3.97;;
72261;SDS011;60173;52.112;8.648;2023-09-19T05:10:08;16.45;;;3.47;;
72261;SDS011;60173;52.112;8.648;2023-09-19T05:12:35;17.75;;;3.75;;
72261;SDS011;60173;52.112;8.648;2023-09-19T05:15:05;19.13;;;3.65;;
72261;SDS011;60173;52.112;8.648;2023-09-19T05:17:33;16.75;;;3.58;;
72261;SDS011;60173;52.112;8.648;2023-09-19T05:20:00;16.00;;;4.03;;
72261;SDS011;60173;52.112;8.648;2023-09-19T05:22:29;16.75;;;3.72;;
72261;SDS011;60173;52.112;8.648;2023-09-19T05:24:56;17.30;;;3.90;;
72261;SDS011;60173;52.112;8.648;2023-09-19T05:27:22;14.55;;;3.75;;
72261;SDS011;60173;52.112;8.648;2023-09-19T05:29:48;22.30;;;3.58;;
72261;SDS011;60173;52.112;8.648;2023-09-19T05:32:15;22.30;;;4.00;;
72261;SDS011;60173;52.112;8.648;2023-09-19T05:34:41;19.05;;;4.25;;
72261;SDS011;60173;52.112;8.648;2023-09-19T05:37:08;11.15;;;3.22;;
72261;SDS011;60173;52.112;8.648;2023-09-19T05:39:34;18.33;;;3.75;;
72261;SDS011;60173;52.112;8.648;2023-09-19T05:42:01;20.70;;;3.63;;
72261;SDS011;60173;52.112;8.648;2023-09-19T05:44:27;19.88;;;3.78;;
72261;SDS011;60173;52.112;8.648;2023-09-19T05:46:53;19.63;;;4.25;;
72261;SDS011;60173;52.112;8.648;2023-09-19T05:49:20;15.18;;;3.88;;
72261;SDS011;60173;52.112;8.648;2023-09-19T05:51:46;15.45;;;3.65;;
72261;SDS011;60173;52.112;8.648;2023-09-19T05:54:13;16.17;;;3.75;;
72261;SDS011;60173;52.112;8.648;2023-09-19T05:56:39;17.67;;;4.03;;
72261;SDS011;60173;52.112;8.648;2023-09-19T05:59:05;15.48;;;3.60;;
72261;SDS011;60173;52.112;8.648;2023-09-19T06:01:32;20.20;;;3.95;;
72261;SDS011;60173;52.112;8.648;2023-09-19T06:03:58;14.77;;;3.78;;
72261;SDS011;60173;52.112;8.648;2023-09-19T06:06:25;16.35;;;3.85;;
72261;SDS011;60173;52.112;8.648;2023-09-19T06:08:52;18.98;;;3.95;;
72261;SDS011;60173;52.112;8.648;2023-09-19T06:11:18;18.02;;;4.22;;
72261;SDS011;60173;52.112;8.648;2023-09-19T06:13:44;18.70;;;3.70;;
72261;SDS011;60173;52.112;8.648;2023-09-19T06:16:11;23.05;;;4.10;;
72261;SDS011;60173;52.112;8.648;2023-09-19T06:18:37;13.32;;;3.53;;
72261;SDS011;60173;52.112;8.648;2023-09-19T06:21:04;18.13;;;3.60;;
72261;SDS011;60173;52.112;8.648;2023-09-19T06:23:30;16.77;;;3.55;;
72261;SDS011;60173;52.112;8.648;2023-09-19T06:25:57;19.88;;;3.80;;
72261;SDS011;60173;52.112;8.648;2023-09-19T06:28:23;16.88;;;3.50;;
72261;SDS011;60173;52.112;8.648;2023-09-19T06:30:50;16.20;;;3.05;;
72261;SDS011;60173;52.112;8.648;2023-09-19T06:33:16;14.63;;;3.67;;
72261;SDS011;60173;52.112;8.648;2023-09-19T06:35:45;17.25;;;3.20;;
72261;SDS011;60173;52.112;8.648;2023-09-19T06:38:11;18.58;;;2.80;;
72261;SDS011;60173;52.112;8.648;2023-09-19T06:40:37;12.65;;;3.17;;
72261;SDS011;60173;52.112;8.648;2023-09-19T06:43:04;13.07;;;3.13;;
72261;SDS011;60173;52.112;8.648;2023-09-19T06:45:31;12.15;;;3.00;;
72261;SDS011;60173;52.112;8.648;2023-09-19T06:47:57;13.15;;;3.30;;
72261;SDS011;60173;52.112;8.648;2023-09-19T06:50:25;13.77;;;3.00;;
72261;SDS011;60173;52.112;8.648;2023-09-19T06:52:52;17.35;;;3.83;;
72261;SDS011;60173;52.112;8.648;2023-09-19T06:55:20;14.35;;;3.45;;
72261;SDS011;60173;52.112;8.648;2023-09-19T06:57:48;10.82;;;2.90;;
72261;SDS011;60173;52.112;8.648;2023-09-19T07:00:15;12.68;;;3.53;;
72261;SDS011;60173;52.112;8.648;2023-09-19T07:02:42;16.40;;;3.20;;
72261;SDS011;60173;52.112;8.648;2023-09-19T07:05:09;13.75;;;3.20;;
72261;SDS011;60173;52.112;8.648;2023-09-19T07:07:35;12.27;;;2.92;;
72261;SDS011;60173;52.112;8.648;2023-09-19T07:10:02;12.50;;;3.13;;
72261;SDS011;60173;52.112;8.648;2023-09-19T07:12:29;18.52;;;4.00;;
72261;SDS011;60173;52.112;8.648;2023-09-19T07:14:56;12.18;;;3.10;;
72261;SDS011;60173;52.112;8.648;2023-09-19T07:17:22;14.98;;;3.42;;
72261;SDS011;60173;52.112;8.648;2023-09-19T07:19:48;11.32;;;3.17;;
72261;SDS011;60173;52.112;8.648;2023-09-19T07:22:15;18.20;;;3.28;;
72261;SDS011;60173;52.112;8.648;2023-09-19T07:24:41;10.27;;;2.80;;
72261;SDS011;60173;52.112;8.648;2023-09-19T07:27:07;12.80;;;2.55;;
72261;SDS011;60173;52.112;8.648;2023-09-19T07:29:34;13.77;;;3.13;;
72261;SDS011;60173;52.112;8.648;2023-09-19T07:32:00;10.32;;;3.13;;
72261;SDS011;60173;52.112;8.648;2023-09-19T07:34:27;13.70;;;3.35;;
72261;SDS011;60173;52.112;8.648;2023-09-19T07:36:53;13.40;;;3.05;;
72261;SDS011;60173;52.112;8.648;2023-09-19T07:39:20;15.02;;;3.05;;
72261;SDS011;60173;52.112;8.648;2023-09-19T07:41:48;12.00;;;2.85;;
72261;SDS011;60173;52.112;8.648;2023-09-19T07:44:15;12.90;;;2.88;;
72261;SDS011;60173;52.112;8.648;2023-09-19T07:46:42;13.25;;;2.85;;
72261;SDS011;60173;52.112;8.648;2023-09-19T07:49:08;16.40;;;3.38;;
72261;SDS011;60173;52.112;8.648;2023-09-19T07:51:34;15.73;;;3.40;;
72261;SDS011;60173;52.112;8.648;2023-09-19T07:54:01;13.02;;;3.58;;
72261;SDS011;60173;52.112;8.648;2023-09-19T07:56:27;14.77;;;3.33;;
72261;SDS011;60173;52.112;8.648;2023-09-19T07:58:53;15.13;;;2.90;;
72261;SDS011;60173;52.112;8.648;2023-09-19T08:01:20;13.13;;;3.53;;
72261;SDS011;60173;52.112;8.648;2023-09-19T08:03:47;14.25;;;3.03;;
72261;SDS011;60173;52.112;8.648;2023-09-19T08:06:13;14.48;;;3.45;;
72261;SDS011;60173;52.112;8.648;2023-09-19T08:08:40;17.10;;;3.75;;
72261;SDS011;60173;52.112;8.648;2023-09-19T08:11:06;15.20;;;3.33;;
72261;SDS011;60173;52.112;8.648;2023-09-19T08:13:33;14.80;;;3.15;;
72261;SDS011;60173;52.112;8.648;2023-09-19T08:15:59;15.88;;;3.03;;
72261;SDS011;60173;52.112;8.648;2023-09-19T08:18:26;18.17;;;3.22;;
72261;SDS011;60173;52.112;8.648;2023-09-19T08:20:52;14.93;;;3.50;;
72261;SDS011;60173;52.112;8.648;2023-09-19T08:23:19;15.70;;;3.60;;
72261;SDS011;60173;52.112;8.648;2023-09-19T08:25:46;13.23;;;3.00;;
72261;SDS011;60173;52.112;8.648;2023-09-19T08:28:13;14.10;;;3.45;;
72261;SDS011;60173;52.112;8.648;2023-09-19T08:30:39;16.77;;;3.60;;
72261;SDS011;60173;52.112;8.648;2023-09-19T08:33:06;13.02;;;2.63;;
72261;SDS011;60173;52.112;8.648;2023-09-19T08:35:32;13.85;;;3.15;;
72261;SDS011;60173;52.112;8.648;2023-09-19T08:37:59;14.02;;;3.30;;
72261;SDS011;60173;52.112;8.648;2023-09-19T08:40:25;12.57;;;2.80;;
72261;SDS011;60173;52.112;8.648;2023-09-19T08:42:52;17.15;;;3.25;;
72261;SDS011;60173;52.112;8.648;2023-09-19T08:45:21;13.70;;;3.08;;
72261;SDS011;60173;52.112;8.648;2023-09-19T08:48:03;14.80;;;3.00;;
72261;SDS011;60173;52.112;8.648;2023-09-19T08:50:32;14.43;;;3.10;;
72261;SDS011;60173;52.112;8.648;2023-09-19T08:53:07;17.55;;;3.25;;
72261;SDS011;60173;52.112;8.648;2023-09-19T08:55:37;13.52;;;3.05;;
72261;SDS011;60173;52.112;8.648;2023-09-19T08:58:07;13.77;;;3.28;;
72261;SDS011;60173;52.112;8.648;2023-09-19T09:00:36;16.90;;;2.90;;
72261;SDS011;60173;52.112;8.648;2023-09-19T09:03:03;13.45;;;3.42;;
72261;SDS011;60173;52.112;8.648;2023-09-19T09:05:31;16.70;;;3.28;;
72261;SDS011;60173;52.112;8.648;2023-09-19T09:08:01;10.73;;;2.90;;
72261;SDS011;60173;52.112;8.648;2023-09-19T09:10:28;13.80;;;3.50;;
72261;SDS011;60173;52.112;8.648;2023-09-19T09:12:54;16.40;;;3.13;;
72261;SDS011;60173;52.112;8.648;2023-09-19T09:15:22;14.85;;;3.83;;
72261;SDS011;60173;52.112;8.648;2023-09-19T09:17:50;11.88;;;3.05;;
72261;SDS011;60173;52.112;8.648;2023-09-19T09:20:17;12.18;;;3.47;;
72261;SDS011;60173;52.112;8.648;2023-09-19T09:22:50;18.17;;;3.50;;
72261;SDS011;60173;52.112;8.648;2023-09-19T09:25:21;11.95;;;3.65;;
72261;SDS011;60173;52.112;8.648;2023-09-19T09:28:06;16.08;;;3.67;;
72261;SDS011;60173;52.112;8.648;2023-09-19T09:30:33;11.83;;;3.60;;
72261;SDS011;60173;52.112;8.648;2023-09-19T09:33:07;15.48;;;3.63;;
72261;SDS011;60173;52.112;8.648;2023-09-19T09:35:47;15.65;;;3.38;;
72261;SDS011;60173;52.112;8.648;2023-09-19T09:38:15;16.02;;;3.60;;
72261;SDS011;60173;52.112;8.648;2023-09-19T09:40:48;12.85;;;4.13;;
72261;SDS011;60173;52.112;8.648;2023-09-19T09:43:29;11.15;;;3.50;;
72261;SDS011;60173;52.112;8.648;2023-09-19T09:46:10;14.25;;;3.78;;
72261;SDS011;60173;52.112;8.648;2023-09-19T09:48:41;12.57;;;3.30;;
72261;SDS011;60173;52.112;8.648;2023-09-19T09:51:07;18.30;;;4.00;;
72261;SDS011;60173;52.112;8.648;2023-09-19T09:53:34;17.15;;;3.83;;
72261;SDS011;60173;52.112;8.648;2023-09-19T09:56:01;18.48;;;3.35;;
72261;SDS011;60173;52.112;8.648;2023-09-19T09:58:28;10.30;;;3.40;;
72261;SDS011;60173;52.112;8.648;2023-09-19T10:00:55;12.73;;;3.60;;
72261;SDS011;60173;52.112;8.648;2023-09-19T10:03:32;14.15;;;3.30;;
72261;SDS011;60173;52.112;8.648;2023-09-19T10:06:00;13.27;;;3.10;;
72261;SDS011;60173;52.112;8.648;2023-09-19T10:08:27;13.88;;;2.97;;
72261;SDS011;60173;52.112;8.648;2023-09-19T10:10:53;11.38;;;3.03;;
72261;SDS011;60173;52.112;8.648;2023-09-19T10:13:20;12.07;;;2.90;;
72261;SDS011;60173;52.112;8.648;2023-09-19T10:15:47;15.38;;;3.88;;
72261;SDS011;60173;52.112;8.648;2023-09-19T10:18:14;16.73;;;3.28;;
72261;SDS011;60173;52.112;8.648;2023-09-19T10:20:45;12.13;;;3.03;;
72261;SDS011;60173;52.112;8.648;2023-09-19T10:23:13;14.65;;;3.03;;
72261;SDS011;60173;52.112;8.648;2023-09-19T10:25:40;13.63;;;3.45;;
72261;SDS011;60173;52.112;8.648;2023-09-19T10:28:09;14.70;;;3.40;;
72261;SDS011;60173;52.112;8.648;2023-09-19T10:30:45;13.18;;;3.13;;
72261;SDS011;60173;52.112;8.648;2023-09-19T10:33:13;9.20;;;2.88;;
72261;SDS011;60173;52.112;8.648;2023-09-19T10:35:45;12.07;;;2.72;;
72261;SDS011;60173;52.112;8.648;2023-09-19T10:38:14;14.40;;;3.40;;
72261;SDS011;60173;52.112;8.648;2023-09-19T10:40:45;18.58;;;3.40;;
72261;SDS011;60173;52.112;8.648;2023-09-19T10:43:15;11.30;;;3.08;;
72261;SDS011;60173;52.112;8.648;2023-09-19T10:45:43;13.15;;;3.10;;
72261;SDS011;60173;52.112;8.648;2023-09-19T10:48:11;10.65;;;2.80;;
72261;SDS011;60173;52.112;8.648;2023-09-19T10:50:48;14.50;;;3.72;;
72261;SDS011;60173;52.112;8.648;2023-09-19T10:53:17;16.88;;;3.03;;
72261;SDS011;60173;52.112;8.648;2023-09-19T10:55:49;13.88;;;3.58;;
72261;SDS011;60173;52.112;8.648;2023-09-19T10:58:28;13.25;;;3.05;;
72261;SDS011;60173;52.112;8.648;2023-09-19T11:00:56;18.48;;;3.58;;
72261;SDS011;60173;52.112;8.648;2023-09-19T11:03:24;13.32;;;3.30;;
72261;SDS011;60173;52.112;8.648;2023-09-19T11:06:01;13.30;;;3.58;;
72261;SDS011;60173;52.112;8.648;2023-09-19T11:11:51;11.88;;;3.08;;
72261;SDS011;60173;52.112;8.648;2023-09-19T11:22:58;9.77;;;3.42;;
72261;SDS011;60173;52.112;8.648;2023-09-19T11:35:58;12.85;;;3.72;;
72261;SDS011;60173;52.112;8.648;2023-09-19T11:38:57;13.23;;;3.22;;
72261;SDS011;60173;52.112;8.648;2023-09-19T11:43:48;13.35;;;3.33;;
72261;SDS011;60173;52.112;8.648;2023-09-19T11:46:15;12.68;;;3.28;;
72261;SDS011;60173;52.112;8.648;2023-09-19T11:48:43;10.88;;;3.00;;
72261;SDS011;60173;52.112;8.648;2023-09-19T11:51:13;12.77;;;3.10;;
72261;SDS011;60173;52.112;8.648;2023-09-19T11:53:41;14.18;;;3.63;;
72261;SDS011;60173;52.112;8.648;2023-09-19T11:56:09;12.63;;;2.90;;
72261;SDS011;60173;52.112;8.648;2023-09-19T11:58:37;14.55;;;3.30;;
72261;SDS011;60173;52.112;8.648;2023-09-19T12:01:04;8.05;;;2.92;;
72261;SDS011;60173;52.112;8.648;2023-09-19T12:03:31;14.13;;;2.88;;
72261;SDS011;60173;52.112;8.648;2023-09-19T12:05:59;12.73;;;2.83;;
72261;SDS011;60173;52.112;8.648;2023-09-19T12:08:25;13.48;;;3.38;;
72261;SDS011;60173;52.112;8.648;2023-09-19T12:10:52;12.80;;;3.28;;
72261;SDS011;60173;52.112;8.648;2023-09-19T12:13:19;9.48;;;2.80;;
72261;SDS011;60173;52.112;8.648;2023-09-19T12:15:46;13.60;;;2.63;;
72261;SDS011;60173;52.112;8.648;2023-09-19T12:18:28;11.32;;;3.35;;
72261;SDS011;60173;52.112;8.648;2023-09-19T12:20:55;14.52;;;3.20;;
72261;SDS011;60173;52.112;8.648;2023-09-19T12:23:22;10.23;;;3.28;;
72261;SDS011;60173;52.112;8.648;2023-09-19T12:25:49;12.60;;;4.10;;
72261;SDS011;60173;52.112;8.648;2023-09-19T12:28:15;11.15;;;2.80;;
72261;SDS011;60173;52.112;8.648;2023-09-19T12:30:42;13.98;;;3.03;;
72261;SDS011;60173;52.112;8.648;2023-09-19T12:33:18;10.85;;;3.17;;
72261;SDS011;60173;52.112;8.648;2023-09-19T12:35:45;15.43;;;3.47;;
72261;SDS011;60173;52.112;8.648;2023-09-19T12:38:21;12.88;;;3.13;;
72261;SDS011;60173;52.112;8.648;2023-09-19T12:40:51;11.82;;;3.03;;
72261;SDS011;60173;52.112;8.648;2023-09-19T12:43:19;13.05;;;2.78;;
72261;SDS011;60173;52.112;8.648;2023-09-19T12:45:45;7.78;;;2.58;;
72261;SDS011;60173;52.112;8.648;2023-09-19T12:50:59;14.52;;;3.53;;
72261;SDS011;60173;52.112;8.648;2023-09-19T12:53:35;12.52;;;3.08;;
72261;SDS011;60173;52.112;8.648;2023-09-19T12:56:04;11.82;;;3.10;;
72261;SDS011;60173;52.112;8.648;2023-09-19T12:58:30;8.90;;;3.00;;
72261;SDS011;60173;52.112;8.648;2023-09-19T13:00:58;12.50;;;3.42;;
72261;SDS011;60173;52.112;8.648;2023-09-19T13:03:25;11.85;;;3.28;;
72261;SDS011;60173;52.112;8.648;2023-09-19T13:05:54;9.65;;;3.22;;
72261;SDS011;60173;52.112;8.648;2023-09-19T13:08:28;11.07;;;2.92;;
72261;SDS011;60173;52.112;8.648;2023-09-19T13:11:02;10.38;;;2.60;;
72261;SDS011;60173;52.112;8.648;2023-09-19T13:13:33;11.35;;;2.72;;
72261;SDS011;60173;52.112;8.648;2023-09-19T13:16:00;9.40;;;2.83;;
72261;SDS011;60173;52.112;8.648;2023-09-19T13:18:28;10.60;;;2.83;;
72261;SDS011;60173;52.112;8.648;2023-09-19T13:21:10;12.48;;;2.72;;
72261;SDS011;60173;52.112;8.648;2023-09-19T13:23:38;9.32;;;2.95;;
72261;SDS011;60173;52.112;8.648;2023-09-19T13:26:05;11.65;;;3.25;;
72261;SDS011;60173;52.112;8.648;2023-09-19T13:28:32;8.52;;;2.90;;
72261;SDS011;60173;52.112;8.648;2023-09-19T13:31:00;10.95;;;3.20;;
72261;SDS011;60173;52.112;8.648;2023-09-19T13:33:27;11.35;;;3.40;;
72261;SDS011;60173;52.112;8.648;2023-09-19T13:35:53;10.35;;;2.90;;
72261;SDS011;60173;52.112;8.648;2023-09-19T13:38:20;10.20;;;2.58;;
72261;SDS011;60173;52.112;8.648;2023-09-19T13:40:46;7.88;;;2.63;;
72261;SDS011;60173;52.112;8.648;2023-09-19T13:43:13;6.68;;;2.80;;
72261;SDS011;60173;52.112;8.648;2023-09-19T13:45:40;13.68;;;2.42;;
72261;SDS011;60173;52.112;8.648;2023-09-19T13:48:07;8.63;;;2.38;;
72261;SDS011;60173;52.112;8.648;2023-09-19T13:50:37;7.53;;;2.22;;
72261;SDS011;60173;52.112;8.648;2023-09-19T13:53:03;8.23;;;2.60;;
72261;SDS011;60173;52.112;8.648;2023-09-19T13:55:30;8.65;;;2.65;;
72261;SDS011;60173;52.112;8.648;2023-09-19T13:57:56;11.77;;;2.78;;
72261;SDS011;60173;52.112;8.648;2023-09-19T14:00:23;8.85;;;2.60;;
72261;SDS011;60173;52.112;8.648;2023-09-19T14:02:49;8.20;;;2.88;;
72261;SDS011;60173;52.112;8.648;2023-09-19T14:05:16;8.15;;;2.40;;
72261;SDS011;60173;52.112;8.648;2023-09-19T14:07:43;8.85;;;2.60;;
72261;SDS011;60173;52.112;8.648;2023-09-19T14:10:10;6.63;;;2.17;;
72261;SDS011;60173;52.112;8.648;2023-09-19T14:12:39;8.18;;;2.38;;
72261;SDS011;60173;52.112;8.648;2023-09-19T14:15:06;9.10;;;2.50;;
72261;SDS011;60173;52.112;8.648;2023-09-19T14:17:34;8.13;;;2.60;;
72261;SDS011;60173;52.112;8.648;2023-09-19T14:20:00;5.82;;;2.10;;
72261;SDS011;60173;52.112;8.648;2023-09-19T14:22:27;8.43;;;2.33;;
72261;SDS011;60173;52.112;8.648;2023-09-19T14:24:53;8.00;;;2.10;;
72261;SDS011;60173;52.112;8.648;2023-09-19T14:27:19;6.63;;;2.38;;
72261;SDS011;60173;52.112;8.648;2023-09-19T14:29:46;9.68;;;2.28;;
72261;SDS011;60173;52.112;8.648;2023-09-19T14:32:12;8.55;;;2.00;;
72261;SDS011;60173;52.112;8.648;2023-09-19T14:34:39;7.07;;;2.10;;
72261;SDS011;60173;52.112;8.648;2023-09-19T14:37:06;8.75;;;2.60;;
72261;SDS011;60173;52.112;8.648;2023-09-19T14:39:32;10.00;;;2.30;;
72261;SDS011;60173;52.112;8.648;2023-09-19T14:41:58;6.45;;;2.08;;
72261;SDS011;60173;52.112;8.648;2023-09-19T14:44:25;8.32;;;2.50;;
72261;SDS011;60173;52.112;8.648;2023-09-19T14:46:52;7.72;;;2.58;;
72261;SDS011;60173;52.112;8.648;2023-09-19T14:49:18;9.00;;;2.45;;
72261;SDS011;60173;52.112;8.648;2023-09-19T14:51:45;9.48;;;2.28;;
72261;SDS011;60173;52.112;8.648;2023-09-19T14:54:11;6.60;;;2.00;;
72261;SDS011;60173;52.112;8.648;2023-09-19T14:56:37;7.32;;;2.50;;
72261;SDS011;60173;52.112;8.648;2023-09-19T14:59:04;5.95;;;2.22;;
72261;SDS011;60173;52.112;8.648;2023-09-19T15:01:30;10.13;;;2.35;;
72261;SDS011;60173;52.112;8.648;2023-09-19T15:03:57;7.30;;;2.55;;
72261;SDS011;60173;52.112;8.648;2023-09-19T15:06:23;7.10;;;2.45;;
72261;SDS011;60173;52.112;8.648;2023-09-19T15:08:50;8.15;;;2.22;;
72261;SDS011;60173;52.112;8.648;2023-09-19T15:11:17;10.50;;;2.50;;
72261;SDS011;60173;52.112;8.648;2023-09-19T15:13:44;7.85;;;2.22;;
72261;SDS011;60173;52.112;8.648;2023-09-19T15:16:12;5.68;;;1.95;;
72261;SDS011;60173;52.112;8.648;2023-09-19T15:18:43;5.55;;;2.20;;
72261;SDS011;60173;52.112;8.648;2023-09-19T15:21:11;7.53;;;2.30;;
72261;SDS011;60173;52.112;8.648;2023-09-19T15:23:39;8.38;;;2.53;;
72261;SDS011;60173;52.112;8.648;2023-09-19T15:26:07;9.93;;;2.30;;
72261;SDS011;60173;52.112;8.648;2023-09-19T15:28:34;7.43;;;2.20;;
72261;SDS011;60173;52.112;8.648;2023-09-19T15:31:02;6.75;;;2.25;;
72261;SDS011;60173;52.112;8.648;2023-09-19T15:33:29;6.90;;;2.40;;